sensor_id;sensor_type;location;lat;lon;timestamp;pressure;altitude;pressure_sealevel;temperature;humidity
16120;BME280;12670;53.502;10.252;2022-12-18T00:00:58;102580.03;;;-1.10;77.40
16120;BME280;12670;53.502;10.252;2022-12-18T00:04:02;102578.16;;;-1.14;77.78
16120;BME280;12670;53.502;10.252;2022-12-18T00:07:05;102582.56;;;-1.12;78.31
16120;BME280;12670;53.502;10.252;2022-12-18T00:10:08;102590.25;;;-1.16;77.45
16120;BME280;12670;53.502;10.252;2022-12-18T00:13:15;102587.94;;;-1.07;77.45
16120;BME280;12670;53.502;10.252;2022-12-18T00:16:21;102585.69;;;-0.98;77.06
16120;BME280;12670;53.502;10.252;2022-12-18T00:19:24;102580.78;;;-1.13;77.21
16120;BME280;12670;53.502;10.252;2022-12-18T00:22:27;102588.16;;;-1.01;77.30
16120;BME280;12670;53.502;10.252;2022-12-18T00:25:32;102586.78;;;-1.15;76.86
16120;BME280;12670;53.502;10.252;2022-12-18T00:28:35;102586.88;;;-1.12;77.17
16120;BME280;12670;53.502;10.252;2022-12-18T00:31:39;102600.88;;;-1.10;77.39
16120;BME280;12670;53.502;10.252;2022-12-18T00:34:42;102602.94;;;-1.00;77.58
16120;BME280;12670;53.502;10.252;2022-12-18T00:37:45;102604.63;;;-1.02;75.75
16120;BME280;12670;53.502;10.252;2022-12-18T00:40:47;102605.28;;;-1.08;76.23
16120;BME280;12670;53.502;10.252;2022-12-18T00:43:50;102620.16;;;-1.05;76.32
16120;BME280;12670;53.502;10.252;2022-12-18T00:46:53;102623.56;;;-1.06;76.02
16120;BME280;12670;53.502;10.252;2022-12-18T00:49:55;102607.72;;;-1.12;76.35
16120;BME280;12670;53.502;10.252;2022-12-18T00:52:58;102614.63;;;-1.14;76.01
16120;BME280;12670;53.502;10.252;2022-12-18T00:56:00;102614.75;;;-1.11;75.28
16120;BME280;12670;53.502;10.252;2022-12-18T00:59:04;102609.06;;;-1.23;75.56
16120;BME280;12670;53.502;10.252;2022-12-18T01:02:08;102617.59;;;-1.27;75.56
16120;BME280;12670;53.502;10.252;2022-12-18T01:05:12;102617.47;;;-1.30;76.20
16120;BME280;12670;53.502;10.252;2022-12-18T01:08:14;102624.78;;;-1.44;75.93
16120;BME280;12670;53.502;10.252;2022-12-18T01:11:19;102620.94;;;-1.54;75.22
16120;BME280;12670;53.502;10.252;2022-12-18T01:14:22;102628.44;;;-1.63;76.34
16120;BME280;12670;53.502;10.252;2022-12-18T01:17:26;102633.63;;;-1.63;76.00
16120;BME280;12670;53.502;10.252;2022-12-18T01:20:28;102637.41;;;-1.55;75.37
16120;BME280;12670;53.502;10.252;2022-12-18T01:23:31;102632.75;;;-1.64;74.82
16120;BME280;12670;53.502;10.252;2022-12-18T01:26:34;102624.63;;;-1.71;75.29
16120;BME280;12670;53.502;10.252;2022-12-18T01:29:36;102624.84;;;-1.65;76.00
16120;BME280;12670;53.502;10.252;2022-12-18T01:32:40;102621.53;;;-1.61;75.91
16120;BME280;12670;53.502;10.252;2022-12-18T01:35:43;102616.47;;;-1.58;76.20
16120;BME280;12670;53.502;10.252;2022-12-18T01:38:46;102611.38;;;-1.55;75.79
16120;BME280;12670;53.502;10.252;2022-12-18T01:41:49;102607.84;;;-1.57;75.19
16120;BME280;12670;53.502;10.252;2022-12-18T01:45:08;102604.16;;;-1.62;75.81
16120;BME280;12670;53.502;10.252;2022-12-18T01:48:25;102600.91;;;-1.56;75.55
16120;BME280;12670;53.502;10.252;2022-12-18T01:51:29;102604.25;;;-1.59;76.13
16120;BME280;12670;53.502;10.252;2022-12-18T01:54:32;102619.41;;;-1.71;75.23
16120;BME280;12670;53.502;10.252;2022-12-18T01:57:35;102624.28;;;-1.80;77.73
16120;BME280;12670;53.502;10.252;2022-12-18T02:00:39;102631.84;;;-1.64;75.63
16120;BME280;12670;53.502;10.252;2022-12-18T02:03:44;102637.41;;;-1.55;76.06
16120;BME280;12670;53.502;10.252;2022-12-18T02:06:49;102634.38;;;-1.66;75.94
16120;BME280;12670;53.502;10.252;2022-12-18T02:09:57;102630.81;;;-1.90;76.39
16120;BME280;12670;53.502;10.252;2022-12-18T02:13:08;102647.47;;;-1.64;76.23
16120;BME280;12670;53.502;10.252;2022-12-18T02:16:20;102647.78;;;-2.00;76.40
16120;BME280;12670;53.502;10.252;2022-12-18T02:19:47;102643.44;;;-1.78;75.63
16120;BME280;12670;53.502;10.252;2022-12-18T02:23:04;102641.03;;;-1.95;76.70
16120;BME280;12670;53.502;10.252;2022-12-18T02:26:15;102636.91;;;-1.90;76.86
16120;BME280;12670;53.502;10.252;2022-12-18T02:29:22;102637.75;;;-1.68;76.13
16120;BME280;12670;53.502;10.252;2022-12-18T02:32:34;102630.88;;;-1.66;75.78
16120;BME280;12670;53.502;10.252;2022-12-18T02:35:40;102635.03;;;-1.71;75.84
16120;BME280;12670;53.502;10.252;2022-12-18T02:38:44;102632.28;;;-1.76;75.25
16120;BME280;12670;53.502;10.252;2022-12-18T02:41:50;102646.88;;;-1.79;75.94
16120;BME280;12670;53.502;10.252;2022-12-18T02:44:53;102658.69;;;-1.88;75.40
16120;BME280;12670;53.502;10.252;2022-12-18T02:47:56;102648.59;;;-1.80;75.46
16120;BME280;12670;53.502;10.252;2022-12-18T02:51:02;102654.22;;;-1.69;75.20
16120;BME280;12670;53.502;10.252;2022-12-18T02:54:11;102649.72;;;-1.73;76.03
16120;BME280;12670;53.502;10.252;2022-12-18T02:57:24;102642.13;;;-1.67;75.29
16120;BME280;12670;53.502;10.252;2022-12-18T03:00:36;102645.19;;;-1.77;75.03
16120;BME280;12670;53.502;10.252;2022-12-18T03:03:43;102636.78;;;-1.70;75.54
16120;BME280;12670;53.502;10.252;2022-12-18T03:06:49;102658.94;;;-1.81;74.76
16120;BME280;12670;53.502;10.252;2022-12-18T03:09:55;102658.50;;;-1.92;76.08
16120;BME280;12670;53.502;10.252;2022-12-18T03:13:03;102657.88;;;-1.86;74.21
16120;BME280;12670;53.502;10.252;2022-12-18T03:16:10;102652.91;;;-1.80;74.11
16120;BME280;12670;53.502;10.252;2022-12-18T03:19:15;102659.84;;;-2.02;74.50
16120;BME280;12670;53.502;10.252;2022-12-18T03:22:20;102669.38;;;-2.02;75.24
16120;BME280;12670;53.502;10.252;2022-12-18T03:25:25;102661.00;;;-2.16;74.91
16120;BME280;12670;53.502;10.252;2022-12-18T03:28:33;102665.50;;;-2.33;74.92
16120;BME280;12670;53.502;10.252;2022-12-18T03:31:40;102669.09;;;-2.29;74.03
16120;BME280;12670;53.502;10.252;2022-12-18T03:34:46;102670.13;;;-2.26;74.79
16120;BME280;12670;53.502;10.252;2022-12-18T03:37:50;102672.28;;;-2.36;73.73
16120;BME280;12670;53.502;10.252;2022-12-18T03:40:58;102680.13;;;-2.35;75.23
16120;BME280;12670;53.502;10.252;2022-12-18T03:44:09;102687.75;;;-2.39;74.65
16120;BME280;12670;53.502;10.252;2022-12-18T03:47:17;102680.41;;;-2.50;75.15
16120;BME280;12670;53.502;10.252;2022-12-18T03:50:27;102673.66;;;-2.24;75.38
16120;BME280;12670;53.502;10.252;2022-12-18T03:53:36;102665.06;;;-2.23;75.15
16120;BME280;12670;53.502;10.252;2022-12-18T03:56:44;102662.38;;;-2.24;74.98
16120;BME280;12670;53.502;10.252;2022-12-18T03:59:51;102674.44;;;-2.26;74.72
16120;BME280;12670;53.502;10.252;2022-12-18T04:02:56;102663.22;;;-2.25;74.49
16120;BME280;12670;53.502;10.252;2022-12-18T04:06:00;102664.41;;;-2.17;73.84
16120;BME280;12670;53.502;10.252;2022-12-18T04:09:05;102658.44;;;-2.35;74.96
16120;BME280;12670;53.502;10.252;2022-12-18T04:12:08;102660.09;;;-2.37;75.50
16120;BME280;12670;53.502;10.252;2022-12-18T04:15:13;102656.56;;;-2.39;75.55
16120;BME280;12670;53.502;10.252;2022-12-18T04:18:16;102659.88;;;-2.23;75.35
16120;BME280;12670;53.502;10.252;2022-12-18T04:21:19;102657.28;;;-2.23;75.34
16120;BME280;12670;53.502;10.252;2022-12-18T04:24:22;102647.50;;;-2.28;75.06
16120;BME280;12670;53.502;10.252;2022-12-18T04:27:24;102651.25;;;-2.22;74.63
16120;BME280;12670;53.502;10.252;2022-12-18T04:30:28;102652.13;;;-2.21;75.69
16120;BME280;12670;53.502;10.252;2022-12-18T04:33:31;102659.94;;;-2.21;76.17
16120;BME280;12670;53.502;10.252;2022-12-18T04:36:33;102657.19;;;-2.24;75.74
16120;BME280;12670;53.502;10.252;2022-12-18T04:39:36;102662.34;;;-2.26;75.50
16120;BME280;12670;53.502;10.252;2022-12-18T04:42:39;102663.34;;;-2.22;76.38
16120;BME280;12670;53.502;10.252;2022-12-18T04:45:43;102664.94;;;-2.26;75.77
16120;BME280;12670;53.502;10.252;2022-12-18T04:48:46;102662.63;;;-2.18;76.14
16120;BME280;12670;53.502;10.252;2022-12-18T04:51:49;102660.13;;;-2.17;74.26
16120;BME280;12670;53.502;10.252;2022-12-18T04:54:51;102662.47;;;-2.23;75.55
16120;BME280;12670;53.502;10.252;2022-12-18T04:57:54;102658.03;;;-2.25;74.84
16120;BME280;12670;53.502;10.252;2022-12-18T05:00:58;102664.84;;;-2.48;75.35
16120;BME280;12670;53.502;10.252;2022-12-18T05:04:01;102668.47;;;-2.45;76.32
16120;BME280;12670;53.502;10.252;2022-12-18T05:07:03;102674.63;;;-2.43;75.61
16120;BME280;12670;53.502;10.252;2022-12-18T05:10:07;102680.72;;;-2.42;75.34
16120;BME280;12670;53.502;10.252;2022-12-18T05:13:10;102681.22;;;-2.51;75.52
16120;BME280;12670;53.502;10.252;2022-12-18T05:16:14;102689.78;;;-2.32;75.16
16120;BME280;12670;53.502;10.252;2022-12-18T05:19:17;102686.16;;;-2.36;74.01
16120;BME280;12670;53.502;10.252;2022-12-18T05:22:20;102694.16;;;-2.31;74.43
16120;BME280;12670;53.502;10.252;2022-12-18T05:25:23;102695.56;;;-2.39;73.59
16120;BME280;12670;53.502;10.252;2022-12-18T05:28:27;102702.34;;;-2.43;73.83
16120;BME280;12670;53.502;10.252;2022-12-18T05:31:32;102701.13;;;-2.51;75.00
16120;BME280;12670;53.502;10.252;2022-12-18T05:34:40;102700.78;;;-2.59;74.19
16120;BME280;12670;53.502;10.252;2022-12-18T05:37:42;102706.25;;;-2.53;73.84
16120;BME280;12670;53.502;10.252;2022-12-18T05:40:45;102705.50;;;-2.50;74.32
16120;BME280;12670;53.502;10.252;2022-12-18T05:43:48;102705.28;;;-2.55;73.32
16120;BME280;12670;53.502;10.252;2022-12-18T05:46:52;102706.38;;;-2.50;73.65
16120;BME280;12670;53.502;10.252;2022-12-18T05:49:55;102702.69;;;-2.55;74.43
16120;BME280;12670;53.502;10.252;2022-12-18T05:52:57;102714.84;;;-2.54;74.28
16120;BME280;12670;53.502;10.252;2022-12-18T05:56:00;102710.03;;;-2.65;74.56
16120;BME280;12670;53.502;10.252;2022-12-18T05:59:03;102703.72;;;-2.71;75.03
16120;BME280;12670;53.502;10.252;2022-12-18T06:02:07;102703.25;;;-2.62;74.88
16120;BME280;12670;53.502;10.252;2022-12-18T06:05:10;102700.50;;;-2.65;74.34
16120;BME280;12670;53.502;10.252;2022-12-18T06:08:13;102699.06;;;-2.58;74.40
16120;BME280;12670;53.502;10.252;2022-12-18T06:11:18;102703.66;;;-2.72;74.23
16120;BME280;12670;53.502;10.252;2022-12-18T06:14:20;102703.81;;;-2.69;74.84
16120;BME280;12670;53.502;10.252;2022-12-18T06:17:27;102713.22;;;-2.71;74.25
16120;BME280;12670;53.502;10.252;2022-12-18T06:20:30;102715.97;;;-2.68;74.60
16120;BME280;12670;53.502;10.252;2022-12-18T06:23:34;102713.13;;;-2.74;74.25
16120;BME280;12670;53.502;10.252;2022-12-18T06:26:38;102723.56;;;-2.73;74.46
16120;BME280;12670;53.502;10.252;2022-12-18T06:29:41;102727.81;;;-2.75;74.39
16120;BME280;12670;53.502;10.252;2022-12-18T06:32:45;102733.19;;;-2.70;73.89
16120;BME280;12670;53.502;10.252;2022-12-18T06:35:53;102732.03;;;-2.77;74.36
16120;BME280;12670;53.502;10.252;2022-12-18T06:39:02;102743.19;;;-2.60;74.04
16120;BME280;12670;53.502;10.252;2022-12-18T06:42:05;102738.81;;;-2.61;73.19
16120;BME280;12670;53.502;10.252;2022-12-18T06:45:08;102742.50;;;-2.95;73.99
16120;BME280;12670;53.502;10.252;2022-12-18T06:48:12;102745.44;;;-2.67;74.57
16120;BME280;12670;53.502;10.252;2022-12-18T06:51:17;102743.03;;;-2.82;74.00
16120;BME280;12670;53.502;10.252;2022-12-18T06:54:19;102748.78;;;-2.70;73.72
16120;BME280;12670;53.502;10.252;2022-12-18T06:57:22;102758.63;;;-2.82;73.40
16120;BME280;12670;53.502;10.252;2022-12-18T07:00:25;102758.63;;;-2.82;73.67
16120;BME280;12670;53.502;10.252;2022-12-18T07:03:29;102748.25;;;-2.82;73.87
16120;BME280;12670;53.502;10.252;2022-12-18T07:06:32;102755.25;;;-2.81;73.49
16120;BME280;12670;53.502;10.252;2022-12-18T07:09:34;102753.31;;;-2.85;73.31
16120;BME280;12670;53.502;10.252;2022-12-18T07:12:37;102742.50;;;-2.95;74.40
16120;BME280;12670;53.502;10.252;2022-12-18T07:15:40;102736.22;;;-2.80;74.30
16120;BME280;12670;53.502;10.252;2022-12-18T07:18:44;102736.97;;;-2.83;73.53
16120;BME280;12670;53.502;10.252;2022-12-18T07:21:47;102740.38;;;-2.84;74.36
16120;BME280;12670;53.502;10.252;2022-12-18T07:24:50;102756.19;;;-2.99;74.40
16120;BME280;12670;53.502;10.252;2022-12-18T07:27:52;102761.50;;;-2.96;74.05
16120;BME280;12670;53.502;10.252;2022-12-18T07:30:55;102761.94;;;-2.86;73.76
16120;BME280;12670;53.502;10.252;2022-12-18T07:33:59;102758.22;;;-2.91;74.09
16120;BME280;12670;53.502;10.252;2022-12-18T07:37:02;102761.66;;;-2.92;74.55
16120;BME280;12670;53.502;10.252;2022-12-18T07:40:05;102769.34;;;-2.94;73.99
16120;BME280;12670;53.502;10.252;2022-12-18T07:43:08;102766.59;;;-3.16;74.40
16120;BME280;12670;53.502;10.252;2022-12-18T07:46:13;102771.81;;;-3.16;75.33
16120;BME280;12670;53.502;10.252;2022-12-18T07:49:18;102768.34;;;-2.98;75.51
16120;BME280;12670;53.502;10.252;2022-12-18T07:52:21;102774.63;;;-2.92;74.41
16120;BME280;12670;53.502;10.252;2022-12-18T07:55:26;102776.41;;;-2.91;74.79
16120;BME280;12670;53.502;10.252;2022-12-18T07:58:42;102784.47;;;-2.85;74.68
16120;BME280;12670;53.502;10.252;2022-12-18T08:01:45;102781.56;;;-2.74;74.58
16120;BME280;12670;53.502;10.252;2022-12-18T08:04:50;102780.13;;;-2.67;73.39
16120;BME280;12670;53.502;10.252;2022-12-18T08:07:52;102781.34;;;-2.78;74.40
16120;BME280;12670;53.502;10.252;2022-12-18T08:10:56;102781.06;;;-2.84;74.57
16120;BME280;12670;53.502;10.252;2022-12-18T08:13:59;102785.31;;;-2.67;73.28
16120;BME280;12670;53.502;10.252;2022-12-18T08:17:02;102778.34;;;-2.49;73.90
16120;BME280;12670;53.502;10.252;2022-12-18T08:20:07;102780.94;;;-2.49;73.82
16120;BME280;12670;53.502;10.252;2022-12-18T08:23:10;102778.13;;;-2.53;73.49
16120;BME280;12670;53.502;10.252;2022-12-18T08:26:13;102770.69;;;-2.46;73.45
16120;BME280;12670;53.502;10.252;2022-12-18T08:29:16;102764.78;;;-2.61;73.16
16120;BME280;12670;53.502;10.252;2022-12-18T08:32:22;102772.03;;;-2.54;73.83
16120;BME280;12670;53.502;10.252;2022-12-18T08:35:26;102766.34;;;-2.64;74.13
16120;BME280;12670;53.502;10.252;2022-12-18T08:38:37;102759.59;;;-2.61;72.79
16120;BME280;12670;53.502;10.252;2022-12-18T08:41:39;102754.19;;;-2.46;74.33
16120;BME280;12670;53.502;10.252;2022-12-18T08:44:42;102756.97;;;-2.42;73.26
16120;BME280;12670;53.502;10.252;2022-12-18T08:47:43;102765.81;;;-2.38;73.16
16120;BME280;12670;53.502;10.252;2022-12-18T08:50:54;102761.19;;;-2.45;73.34
16120;BME280;12670;53.502;10.252;2022-12-18T08:53:57;102773.19;;;-2.47;73.72
16120;BME280;12670;53.502;10.252;2022-12-18T08:57:00;102775.28;;;-2.19;73.66
16120;BME280;12670;53.502;10.252;2022-12-18T09:00:04;102775.16;;;-2.22;72.27
16120;BME280;12670;53.502;10.252;2022-12-18T09:03:11;102775.81;;;-2.07;72.53
16120;BME280;12670;53.502;10.252;2022-12-18T09:06:16;102775.16;;;-2.42;72.60
16120;BME280;12670;53.502;10.252;2022-12-18T09:09:19;102777.25;;;-2.13;73.52
16120;BME280;12670;53.502;10.252;2022-12-18T09:12:21;102766.13;;;-2.11;72.94
16120;BME280;12670;53.502;10.252;2022-12-18T09:15:25;102768.19;;;-2.02;72.57
16120;BME280;12670;53.502;10.252;2022-12-18T09:18:27;102763.91;;;-1.81;71.54
16120;BME280;12670;53.502;10.252;2022-12-18T09:21:33;102770.00;;;-1.80;71.69
16120;BME280;12670;53.502;10.252;2022-12-18T09:24:37;102771.31;;;-1.69;71.12
16120;BME280;12670;53.502;10.252;2022-12-18T09:27:40;102773.19;;;-1.88;72.91
16120;BME280;12670;53.502;10.252;2022-12-18T09:30:44;102775.00;;;-1.64;72.65
16120;BME280;12670;53.502;10.252;2022-12-18T09:33:47;102775.13;;;-1.61;71.42
16120;BME280;12670;53.502;10.252;2022-12-18T09:36:52;102765.66;;;-1.59;71.99
16120;BME280;12670;53.502;10.252;2022-12-18T09:39:54;102772.88;;;-1.94;72.85
16120;BME280;12670;53.502;10.252;2022-12-18T09:43:00;102767.75;;;-1.50;71.44
16120;BME280;12670;53.502;10.252;2022-12-18T09:46:11;102770.75;;;-1.62;71.34
16120;BME280;12670;53.502;10.252;2022-12-18T09:49:19;102762.00;;;-1.42;71.69
16120;BME280;12670;53.502;10.252;2022-12-18T09:52:29;102768.03;;;-1.43;71.29
16120;BME280;12670;53.502;10.252;2022-12-18T09:55:37;102769.72;;;-1.45;72.84
16120;BME280;12670;53.502;10.252;2022-12-18T09:58:45;102770.53;;;-1.23;72.09
16120;BME280;12670;53.502;10.252;2022-12-18T10:01:49;102775.25;;;-1.36;72.14
16120;BME280;12670;53.502;10.252;2022-12-18T10:05:02;102767.41;;;-1.15;70.47
16120;BME280;12670;53.502;10.252;2022-12-18T10:08:11;102765.75;;;-1.13;71.10
16120;BME280;12670;53.502;10.252;2022-12-18T10:11:26;102773.69;;;-1.10;71.41
16120;BME280;12670;53.502;10.252;2022-12-18T10:14:36;102773.91;;;-1.26;70.54
16120;BME280;12670;53.502;10.252;2022-12-18T10:17:48;102776.31;;;-1.53;70.83
16120;BME280;12670;53.502;10.252;2022-12-18T10:20:56;102767.94;;;-1.23;71.46
16120;BME280;12670;53.502;10.252;2022-12-18T10:24:11;102771.38;;;-1.02;71.88
16120;BME280;12670;53.502;10.252;2022-12-18T10:27:21;102771.72;;;-0.93;71.14
16120;BME280;12670;53.502;10.252;2022-12-18T10:30:25;102774.06;;;-0.76;71.17
16120;BME280;12670;53.502;10.252;2022-12-18T10:33:30;102781.78;;;-0.79;69.08
16120;BME280;12670;53.502;10.252;2022-12-18T10:36:33;102779.41;;;-0.73;69.55
16120;BME280;12670;53.502;10.252;2022-12-18T10:39:37;102799.38;;;-0.74;69.85
16120;BME280;12670;53.502;10.252;2022-12-18T10:42:40;102794.69;;;-0.83;69.33
16120;BME280;12670;53.502;10.252;2022-12-18T10:45:58;102796.09;;;-0.44;70.27
16120;BME280;12670;53.502;10.252;2022-12-18T10:49:02;102787.84;;;-0.57;69.17
16120;BME280;12670;53.502;10.252;2022-12-18T10:52:07;102782.97;;;-0.23;70.05
16120;BME280;12670;53.502;10.252;2022-12-18T10:55:16;102783.13;;;0.07;68.50
16120;BME280;12670;53.502;10.252;2022-12-18T10:58:25;102778.19;;;0.16;66.58
16120;BME280;12670;53.502;10.252;2022-12-18T11:01:32;102777.84;;;0.31;66.67
16120;BME280;12670;53.502;10.252;2022-12-18T11:04:50;102767.34;;;0.85;65.44
16120;BME280;12670;53.502;10.252;2022-12-18T11:07:53;102759.00;;;0.96;63.74
16120;BME280;12670;53.502;10.252;2022-12-18T11:10:57;102765.44;;;1.38;63.83
16120;BME280;12670;53.502;10.252;2022-12-18T11:14:03;102777.53;;;2.32;60.50
16120;BME280;12670;53.502;10.252;2022-12-18T11:17:18;102774.22;;;2.04;59.68
16120;BME280;12670;53.502;10.252;2022-12-18T11:20:31;102766.13;;;1.64;60.55
16120;BME280;12670;53.502;10.252;2022-12-18T11:23:35;102765.53;;;1.72;61.57
16120;BME280;12670;53.502;10.252;2022-12-18T11:26:40;102752.75;;;1.21;63.00
16120;BME280;12670;53.502;10.252;2022-12-18T11:29:44;102765.91;;;0.94;64.05
16120;BME280;12670;53.502;10.252;2022-12-18T11:32:48;102756.97;;;0.88;66.04
16120;BME280;12670;53.502;10.252;2022-12-18T11:35:53;102751.50;;;0.78;65.86
16120;BME280;12670;53.502;10.252;2022-12-18T11:38:59;102742.72;;;0.48;65.93
16120;BME280;12670;53.502;10.252;2022-12-18T11:42:11;102738.25;;;0.45;68.57
16120;BME280;12670;53.502;10.252;2022-12-18T11:45:27;102737.72;;;0.29;68.15
16120;BME280;12670;53.502;10.252;2022-12-18T11:48:33;102738.31;;;0.20;68.10
16120;BME280;12670;53.502;10.252;2022-12-18T11:51:44;102735.78;;;-0.04;68.37
16120;BME280;12670;53.502;10.252;2022-12-18T11:54:52;102733.06;;;0.18;68.54
16120;BME280;12670;53.502;10.252;2022-12-18T11:58:03;102729.19;;;0.07;67.77
16120;BME280;12670;53.502;10.252;2022-12-18T12:01:15;102737.22;;;0.13;68.70
16120;BME280;12670;53.502;10.252;2022-12-18T12:04:39;102732.81;;;0.38;67.62
16120;BME280;12670;53.502;10.252;2022-12-18T12:07:48;102717.00;;;0.35;69.50
16120;BME280;12670;53.502;10.252;2022-12-18T12:11:00;102716.78;;;0.00;67.71
16120;BME280;12670;53.502;10.252;2022-12-18T12:14:42;102693.69;;;0.12;70.13
16120;BME280;12670;53.502;10.252;2022-12-18T12:17:52;102690.75;;;0.02;70.01
16120;BME280;12670;53.502;10.252;2022-12-18T12:21:02;102688.66;;;-0.09;68.81
16120;BME280;12670;53.502;10.252;2022-12-18T12:24:19;102684.72;;;0.04;70.92
16120;BME280;12670;53.502;10.252;2022-12-18T12:27:36;102684.75;;;0.33;71.19
16120;BME280;12670;53.502;10.252;2022-12-18T12:30:54;102682.41;;;0.13;70.16
16120;BME280;12670;53.502;10.252;2022-12-18T12:34:08;102679.97;;;-0.08;70.06
16120;BME280;12670;53.502;10.252;2022-12-18T12:37:23;102675.34;;;0.38;71.19
16120;BME280;12670;53.502;10.252;2022-12-18T12:40:30;102667.78;;;0.47;71.81
16120;BME280;12670;53.502;10.252;2022-12-18T12:43:57;102664.47;;;0.52;70.75
16120;BME280;12670;53.502;10.252;2022-12-18T12:47:10;102654.47;;;0.38;69.74
16120;BME280;12670;53.502;10.252;2022-12-18T12:50:19;102650.31;;;0.44;69.19
16120;BME280;12670;53.502;10.252;2022-12-18T12:53:26;102648.16;;;0.90;68.70
16120;BME280;12670;53.502;10.252;2022-12-18T12:56:38;102647.47;;;1.28;68.61
16120;BME280;12670;53.502;10.252;2022-12-18T12:59:49;102623.88;;;1.25;69.04
16120;BME280;12670;53.502;10.252;2022-12-18T13:03:01;102604.13;;;1.37;69.07
16120;BME280;12670;53.502;10.252;2022-12-18T13:06:14;102612.31;;;0.86;66.60
16120;BME280;12670;53.502;10.252;2022-12-18T13:09:19;102608.72;;;0.82;67.64
16120;BME280;12670;53.502;10.252;2022-12-18T13:12:22;102625.69;;;0.96;69.12
16120;BME280;12670;53.502;10.252;2022-12-18T13:15:44;102614.19;;;0.90;70.21
16120;BME280;12670;53.502;10.252;2022-12-18T13:18:53;102612.97;;;0.77;68.72
16120;BME280;12670;53.502;10.252;2022-12-18T13:21:58;102597.22;;;0.75;67.63
16120;BME280;12670;53.502;10.252;2022-12-18T13:25:01;102607.28;;;0.92;69.86
16120;BME280;12670;53.502;10.252;2022-12-18T13:28:07;102619.63;;;0.97;68.93
16120;BME280;12670;53.502;10.252;2022-12-18T13:31:11;102621.31;;;0.95;69.75
16120;BME280;12670;53.502;10.252;2022-12-18T13:34:17;102624.53;;;0.87;70.01
16120;BME280;12670;53.502;10.252;2022-12-18T13:37:51;102627.28;;;0.91;68.78
16120;BME280;12670;53.502;10.252;2022-12-18T13:40:56;102613.22;;;0.86;69.59
16120;BME280;12670;53.502;10.252;2022-12-18T13:44:11;102611.84;;;0.39;69.36
16120;BME280;12670;53.502;10.252;2022-12-18T13:47:26;102607.66;;;0.44;68.87
16120;BME280;12670;53.502;10.252;2022-12-18T13:50:31;102600.41;;;0.35;70.38
16120;BME280;12670;53.502;10.252;2022-12-18T13:53:39;102605.59;;;0.34;69.98
16120;BME280;12670;53.502;10.252;2022-12-18T13:56:47;102604.38;;;0.22;71.01
16120;BME280;12670;53.502;10.252;2022-12-18T13:59:51;102609.22;;;0.39;71.36
16120;BME280;12670;53.502;10.252;2022-12-18T14:02:54;102619.81;;;0.43;70.97
16120;BME280;12670;53.502;10.252;2022-12-18T14:06:06;102632.13;;;-0.08;71.19
16120;BME280;12670;53.502;10.252;2022-12-18T14:09:13;102632.16;;;0.20;72.00
16120;BME280;12670;53.502;10.252;2022-12-18T14:12:24;102611.31;;;0.22;71.67
16120;BME280;12670;53.502;10.252;2022-12-18T14:15:47;102611.56;;;0.01;71.07
16120;BME280;12670;53.502;10.252;2022-12-18T14:18:53;102613.03;;;-0.07;72.44
16120;BME280;12670;53.502;10.252;2022-12-18T14:22:13;102604.84;;;0.09;73.46
16120;BME280;12670;53.502;10.252;2022-12-18T14:25:19;102604.66;;;0.03;73.06
16120;BME280;12670;53.502;10.252;2022-12-18T14:28:22;102610.47;;;-0.33;74.01
16120;BME280;12670;53.502;10.252;2022-12-18T14:31:26;102602.78;;;-0.01;74.01
16120;BME280;12670;53.502;10.252;2022-12-18T14:34:29;102604.56;;;0.00;73.66
16120;BME280;12670;53.502;10.252;2022-12-18T14:37:33;102608.06;;;-0.27;74.01
16120;BME280;12670;53.502;10.252;2022-12-18T14:40:36;102604.09;;;-0.15;75.11
16120;BME280;12670;53.502;10.252;2022-12-18T14:43:40;102595.06;;;0.02;74.21
16120;BME280;12670;53.502;10.252;2022-12-18T14:46:45;102582.78;;;-0.29;72.98
16120;BME280;12670;53.502;10.252;2022-12-18T14:49:48;102585.66;;;-0.20;74.14
16120;BME280;12670;53.502;10.252;2022-12-18T14:52:52;102587.72;;;-0.10;75.11
16120;BME280;12670;53.502;10.252;2022-12-18T14:55:55;102589.16;;;-0.19;74.90
16120;BME280;12670;53.502;10.252;2022-12-18T14:58:59;102591.38;;;-0.32;75.61
16120;BME280;12670;53.502;10.252;2022-12-18T15:02:04;102584.69;;;-0.23;74.56
16120;BME280;12670;53.502;10.252;2022-12-18T15:05:18;102570.63;;;-0.29;74.00
16120;BME280;12670;53.502;10.252;2022-12-18T15:08:35;102573.78;;;-0.12;74.50
16120;BME280;12670;53.502;10.252;2022-12-18T15:11:46;102568.75;;;-0.06;73.89
16120;BME280;12670;53.502;10.252;2022-12-18T15:14:48;102555.28;;;-0.18;73.89
16120;BME280;12670;53.502;10.252;2022-12-18T15:17:56;102554.84;;;-0.32;73.66
16120;BME280;12670;53.502;10.252;2022-12-18T15:21:07;102540.94;;;-0.32;74.46
16120;BME280;12670;53.502;10.252;2022-12-18T15:24:18;102543.38;;;-0.37;74.46
16120;BME280;12670;53.502;10.252;2022-12-18T15:27:24;102531.03;;;-0.42;74.20
16120;BME280;12670;53.502;10.252;2022-12-18T15:30:28;102525.03;;;-0.67;74.13
16120;BME280;12670;53.502;10.252;2022-12-18T15:33:32;102526.53;;;-0.75;75.39
16120;BME280;12670;53.502;10.252;2022-12-18T15:36:36;102527.88;;;-0.59;76.27
16120;BME280;12670;53.502;10.252;2022-12-18T15:39:40;102533.59;;;-0.44;75.30
16120;BME280;12670;53.502;10.252;2022-12-18T15:42:43;102526.91;;;-0.63;75.70
16120;BME280;12670;53.502;10.252;2022-12-18T15:46:05;102516.84;;;-0.52;75.66
16120;BME280;12670;53.502;10.252;2022-12-18T15:49:08;102518.31;;;-0.60;75.98
16120;BME280;12670;53.502;10.252;2022-12-18T15:52:13;102505.19;;;-0.63;75.99
16120;BME280;12670;53.502;10.252;2022-12-18T15:55:28;102512.81;;;-0.69;76.00
16120;BME280;12670;53.502;10.252;2022-12-18T15:58:48;102505.75;;;-0.72;76.59
16120;BME280;12670;53.502;10.252;2022-12-18T16:01:51;102506.25;;;-0.84;76.81
16120;BME280;12670;53.502;10.252;2022-12-18T16:04:56;102504.38;;;-0.88;77.16